createdAt,value
2018-12-18T00:00:10.795Z,100337.30
2018-12-18T00:02:40.663Z,100341.87
2018-12-18T00:05:16.883Z,100344.48
2018-12-18T00:07:46.461Z,100337.28
2018-12-18T00:10:17.060Z,100337.43
2018-12-18T00:12:46.425Z,100336.61
2018-12-18T00:15:16.356Z,100339.39
2018-12-18T00:17:45.784Z,100337.58
2018-12-18T00:20:16.979Z,100341.83
2018-12-18T00:22:46.381Z,100337.10
2018-12-18T00:25:16.790Z,100344.74
2018-12-18T00:27:46.198Z,100344.06
2018-12-18T00:30:17.074Z,100342.12
2018-12-18T00:32:47.064Z,100342.12
2018-12-18T00:35:17.944Z,100337.88
2018-12-18T00:37:48.065Z,100340.48
2018-12-18T00:40:18.135Z,100336.71
2018-12-18T00:42:48.046Z,100341.41
2018-12-18T00:45:17.707Z,100348.59
2018-12-18T00:47:49.197Z,100353.16
2018-12-18T00:50:19.191Z,100346.14
2018-12-18T00:52:49.076Z,100339.92
2018-12-18T00:56:22.034Z,100355.63
2018-12-18T00:58:52.925Z,100342.58
2018-12-18T01:01:24.250Z,100342.58
2018-12-18T01:03:53.912Z,100341.28
2018-12-18T01:06:23.506Z,100340.30
2018-12-18T01:08:53.402Z,100340.79
2018-12-18T01:11:23.452Z,100336.22
2018-12-18T01:13:53.551Z,100337.23
2018-12-18T01:16:23.848Z,100329.10
2018-12-18T01:18:54.579Z,100335.24
2018-12-18T01:21:24.559Z,100341.14
2018-12-18T01:23:54.938Z,100336.13
2018-12-18T01:26:24.763Z,100333.72
2018-12-18T01:28:56.220Z,100350.52
2018-12-18T01:31:26.311Z,100350.38
2018-12-18T01:33:59.327Z,100352.37
2018-12-18T01:36:28.960Z,100357.90
2018-12-18T01:38:59.702Z,100356.77
2018-12-18T01:41:30.382Z,100349.94
2018-12-18T01:44:00.760Z,100352.05
2018-12-18T01:46:30.459Z,100353.21
2018-12-18T01:49:01.330Z,100350.11
2018-12-18T01:51:31.014Z,100340.66
2018-12-18T01:54:03.752Z,100344.27
2018-12-18T01:56:33.867Z,100344.09
2018-12-18T01:59:04.120Z,100345.05
2018-12-18T02:01:34.240Z,100342.61
2018-12-18T02:04:06.072Z,100350.27
2018-12-18T02:06:36.048Z,100348.48
2018-12-18T02:09:07.704Z,100345.86
2018-12-18T02:11:37.351Z,100355.31
2018-12-18T02:14:08.662Z,100358.73
2018-12-18T02:16:38.986Z,100372.57
2018-12-18T02:19:09.435Z,100370.30
2018-12-18T02:21:39.133Z,100374.85
2018-12-18T02:24:08.812Z,100383.64
2018-12-18T02:26:38.480Z,100370.62
2018-12-18T02:29:09.480Z,100371.44
2018-12-18T02:31:39.454Z,100363.95
2018-12-18T02:34:13.854Z,100360.99
2018-12-18T02:36:43.570Z,100365.41
2018-12-18T02:39:13.365Z,100366.37
2018-12-18T02:41:43.076Z,100365.23
2018-12-18T02:44:13.444Z,100368.98
2018-12-18T02:46:43.344Z,100371.27
2018-12-18T02:49:12.999Z,100385.92
2018-12-18T02:51:43.082Z,100387.88
2018-12-18T02:54:12.790Z,100384.42
2018-12-18T02:56:42.169Z,100392.23
2018-12-18T02:59:12.873Z,100388.82
2018-12-18T03:01:42.742Z,100387.22
2018-12-18T03:04:12.751Z,100382.48
2018-12-18T03:06:43.319Z,100383.31
2018-12-18T03:09:13.264Z,100385.09
2018-12-18T03:11:42.714Z,100380.20
2018-12-18T03:14:12.807Z,100376.47
2018-12-18T03:16:42.420Z,100367.05
2018-12-18T03:19:12.286Z,100375.65
2018-12-18T03:21:42.663Z,100381.02
2018-12-18T03:24:12.174Z,100375.52
2018-12-18T03:26:41.773Z,100373.39
2018-12-18T03:29:11.894Z,100375.84
2018-12-18T03:31:45.446Z,100382.67
2018-12-18T03:34:14.991Z,100382.01
2018-12-18T03:36:44.921Z,100382.66
2018-12-18T03:39:14.578Z,100376.97
2018-12-18T03:41:43.916Z,100384.63
2018-12-18T03:44:13.832Z,100370.44
2018-12-18T03:46:43.514Z,100374.68
2018-12-18T03:49:13.251Z,100374.69
2018-12-18T03:51:43.370Z,100373.86
2018-12-18T03:54:14.104Z,100370.61
2018-12-18T03:56:44.770Z,100375.34
2018-12-18T03:59:16.006Z,100265.02
2018-12-18T04:01:46.499Z,100363.13
2018-12-18T04:04:16.690Z,100366.37
2018-12-18T04:06:46.791Z,100364.42
2018-12-18T04:09:17.050Z,100371.75
2018-12-18T04:11:51.610Z,100367.20
2018-12-18T04:14:21.244Z,100371.91
2018-12-18T04:16:51.087Z,100355.64
2018-12-18T04:19:21.051Z,100379.41
2018-12-18T04:21:51.557Z,100374.36
2018-12-18T04:24:22.744Z,100385.56
2018-12-18T04:26:53.459Z,100378.73
2018-12-18T04:29:23.197Z,100373.84
2018-12-18T04:31:52.817Z,100378.06
2018-12-18T04:34:23.108Z,100374.97
2018-12-18T04:36:53.152Z,100372.53
2018-12-18T04:39:23.828Z,100370.23
2018-12-18T04:41:54.325Z,100369.89
2018-12-18T04:44:23.878Z,100373.16
2018-12-18T04:46:54.571Z,100379.98
2018-12-18T04:49:24.689Z,100358.83
2018-12-18T04:51:54.937Z,100384.72
2018-12-18T04:54:24.336Z,100384.06
2018-12-18T04:56:54.488Z,100380.64
2018-12-18T04:59:24.319Z,100382.26
2018-12-18T05:01:54.752Z,100306.78
2018-12-18T05:04:24.289Z,100391.06
2018-12-18T05:06:53.702Z,100384.55
2018-12-18T05:09:23.416Z,100386.16
2018-12-18T05:11:53.734Z,100391.55
2018-12-18T05:16:59.682Z,100403.93
2018-12-18T05:19:29.617Z,100403.91
2018-12-18T05:21:59.256Z,100334.94
2018-12-18T05:24:28.818Z,100417.63
2018-12-18T05:26:58.431Z,100427.23
2018-12-18T05:29:27.936Z,100430.83
2018-12-18T05:31:58.431Z,100428.88
2018-12-18T05:34:28.041Z,100425.12
2018-12-18T05:36:57.596Z,100436.53
2018-12-18T05:39:29.323Z,100434.41
2018-12-18T05:41:59.436Z,100436.53
2018-12-18T05:44:29.681Z,100434.09
2018-12-18T05:47:30.476Z,100434.42
2018-12-18T05:50:00.369Z,100433.92
2018-12-18T05:52:30.313Z,100437.66
2018-12-18T05:54:59.814Z,100411.93
2018-12-18T05:57:29.170Z,100444.02
2018-12-18T05:59:58.850Z,100444.81
2018-12-18T06:02:28.199Z,100444.17
2018-12-18T06:05:03.245Z,100446.75
2018-12-18T06:07:29.443Z,100450.02
2018-12-18T06:10:00.288Z,100453.10
2018-12-18T06:12:29.988Z,100447.70
2018-12-18T06:15:00.545Z,100446.70
2018-12-18T06:17:30.358Z,100448.18
2018-12-18T06:20:00.903Z,100430.24
2018-12-18T06:22:30.538Z,100433.48
2018-12-18T06:25:00.224Z,100433.48
2018-12-18T06:27:31.569Z,100432.85
2018-12-18T06:30:02.598Z,100438.55
2018-12-18T06:32:32.305Z,100440.48
2018-12-18T06:35:02.011Z,100432.52
2018-12-18T06:37:31.469Z,100443.09
2018-12-18T06:40:02.993Z,100443.27
2018-12-18T06:42:32.790Z,100433.17
2018-12-18T06:45:04.558Z,100440.33
2018-12-18T06:47:33.991Z,100448.16
2018-12-18T06:50:05.625Z,100447.16
2018-12-18T06:52:35.466Z,100442.97
2018-12-18T06:55:05.661Z,100444.15
2018-12-18T06:57:36.416Z,100440.59
2018-12-18T07:00:11.173Z,100451.36
2018-12-18T07:02:41.879Z,100445.98
2018-12-18T07:05:16.678Z,100443.56
2018-12-18T07:07:43.176Z,100441.44
2018-12-18T07:10:12.696Z,100441.30
2018-12-18T07:12:42.413Z,100441.45
2018-12-18T07:15:12.713Z,100441.27
2018-12-18T07:17:42.901Z,100444.52
2018-12-18T07:20:14.250Z,100442.22
2018-12-18T07:22:43.865Z,100440.43
2018-12-18T07:25:14.634Z,100436.38
2018-12-18T07:27:44.628Z,100432.77
2018-12-18T07:30:14.028Z,100425.45
2018-12-18T07:32:44.817Z,100434.23
2018-12-18T07:35:23.090Z,100422.00
2018-12-18T07:37:49.210Z,100438.92
2018-12-18T07:40:19.189Z,100426.72
2018-12-18T07:42:50.042Z,100335.73
2018-12-18T07:45:20.826Z,100434.69
2018-12-18T07:47:50.212Z,100428.51
2018-12-18T07:50:19.892Z,100432.08
2018-12-18T07:52:50.529Z,100439.89
2018-12-18T07:55:20.428Z,100443.80
2018-12-18T07:57:50.130Z,100441.52
2018-12-18T08:00:20.637Z,100447.70
2018-12-18T08:02:50.505Z,100446.25
2018-12-18T08:05:20.228Z,100447.88
2018-12-18T08:07:50.365Z,100456.84
2018-12-18T08:10:20.471Z,100457.81
2018-12-18T08:12:50.133Z,100459.30
2018-12-18T08:15:20.186Z,100455.88
2018-12-18T08:17:50.806Z,100464.02
2018-12-18T08:20:20.673Z,100454.60
2018-12-18T08:22:50.504Z,100456.88
2018-12-18T08:25:19.965Z,100455.27
2018-12-18T08:27:50.059Z,100449.09
2018-12-18T08:30:19.878Z,100452.99
2018-12-18T08:32:49.326Z,100446.14
2018-12-18T08:35:18.798Z,100444.03
2018-12-18T08:37:48.541Z,100446.63
2018-12-18T08:40:18.644Z,100359.66
2018-12-18T08:42:49.390Z,100344.66
2018-12-18T08:45:19.522Z,100440.78
2018-12-18T08:47:49.242Z,100442.72
2018-12-18T08:50:18.839Z,100448.75
2018-12-18T08:52:48.589Z,100446.47
2018-12-18T08:55:18.518Z,100329.83
2018-12-18T08:57:48.282Z,100448.10
2018-12-18T09:00:18.046Z,100450.22
2018-12-18T09:02:48.557Z,100453.83
2018-12-18T09:05:18.193Z,100466.20
2018-12-18T09:07:48.060Z,100455.14
2018-12-18T09:10:17.502Z,100463.13
2018-12-18T09:12:47.276Z,100464.91
2018-12-18T09:15:23.119Z,100472.08
2018-12-18T09:17:55.970Z,100465.72
2018-12-18T09:20:25.872Z,100466.70
2018-12-18T09:22:56.356Z,100465.56
2018-12-18T09:25:26.643Z,100461.14
2018-12-18T09:27:58.015Z,100460.33
2018-12-18T09:30:27.731Z,100466.03
2018-12-18T09:32:59.567Z,100464.88
2018-12-18T09:35:30.395Z,100466.01
2018-12-18T09:38:07.160Z,100465.66
2018-12-18T09:40:43.098Z,100467.27
2018-12-18T09:43:17.860Z,100456.52
2018-12-18T09:45:47.339Z,100447.84
2018-12-18T09:48:18.252Z,100439.52
2018-12-18T09:50:47.997Z,100445.66
2018-12-18T09:53:18.414Z,100440.75
2018-12-18T09:55:48.208Z,100445.43
2018-12-18T09:58:18.114Z,100440.86
2018-12-18T10:00:50.497Z,100448.17
2018-12-18T10:03:20.287Z,100437.08
2018-12-18T10:05:56.131Z,100437.54
2018-12-18T10:08:24.584Z,100435.42
2018-12-18T10:10:55.191Z,100432.16
2018-12-18T10:13:24.786Z,100432.80
2018-12-18T10:15:54.278Z,100424.45
2018-12-18T10:18:26.892Z,100428.08
2018-12-18T10:20:56.723Z,100327.36
2018-12-18T10:23:28.414Z,100422.30
2018-12-18T10:25:58.578Z,100409.69
2018-12-18T10:28:28.808Z,100244.02
2018-12-18T10:30:59.523Z,100390.58
2018-12-18T10:33:30.145Z,100281.70
2018-12-18T10:36:03.117Z,100380.43
2018-12-18T10:38:32.895Z,100375.19
2018-12-18T10:41:07.128Z,100360.08
2018-12-18T10:43:39.034Z,100345.33
2018-12-18T10:46:09.143Z,100338.24
2018-12-18T10:48:39.569Z,100332.16
2018-12-18T10:51:13.262Z,100321.65
2018-12-18T10:53:42.999Z,100321.31
2018-12-18T10:56:13.857Z,100319.45
2018-12-18T10:58:46.366Z,100310.36
2018-12-18T11:01:24.231Z,100306.73
2018-12-18T11:03:54.831Z,100302.09
2018-12-18T11:06:26.921Z,100303.61
2018-12-18T11:09:00.785Z,100214.45
2018-12-18T11:11:32.842Z,100290.21
2018-12-18T11:14:03.986Z,100285.07
2018-12-18T11:16:37.467Z,100284.84
2018-12-18T11:19:08.765Z,100281.95
2018-12-18T11:21:38.900Z,100278.61
2018-12-18T11:24:08.802Z,100276.68
2018-12-18T11:26:38.921Z,100280.54
2018-12-18T11:29:10.363Z,100284.18
2018-12-18T11:31:39.902Z,100282.58
2018-12-18T11:34:09.364Z,100274.64
2018-12-18T11:36:38.968Z,100278.06
2018-12-18T11:39:10.278Z,100175.12
2018-12-18T11:41:39.722Z,100270.68
2018-12-18T11:44:10.353Z,100272.48
2018-12-18T11:46:40.355Z,100269.97
2018-12-18T11:49:12.762Z,100265.88
2018-12-18T11:51:45.003Z,100270.86
2018-12-18T11:54:15.673Z,100267.64
2018-12-18T11:56:46.015Z,100265.59
2018-12-18T11:59:16.668Z,100173.98
2018-12-18T12:01:46.234Z,100263.25
2018-12-18T12:04:20.960Z,100263.45
2018-12-18T12:06:53.015Z,100264.09
2018-12-18T12:09:22.856Z,100249.68
2018-12-18T12:11:52.479Z,100242.88
2018-12-18T12:14:22.827Z,100238.13
2018-12-18T12:16:52.433Z,100164.64
2018-12-18T12:19:22.240Z,100220.01
2018-12-18T12:21:52.640Z,100216.62
2018-12-18T12:24:22.297Z,100211.34
2018-12-18T12:26:53.973Z,100211.90
2018-12-18T12:29:24.314Z,100208.41
2018-12-18T12:31:54.396Z,100215.06
2018-12-18T12:34:24.832Z,100206.34
2018-12-18T12:36:54.481Z,100205.53
2018-12-18T12:39:25.452Z,100165.52
2018-12-18T12:41:54.841Z,100189.94
2018-12-18T12:44:24.561Z,100193.37
2018-12-18T12:46:54.061Z,100189.83
2018-12-18T12:49:27.706Z,100185.70
2018-12-18T12:51:57.045Z,100187.14
2018-12-18T12:54:28.505Z,100163.95
2018-12-18T12:56:58.751Z,100183.33
2018-12-18T12:59:32.824Z,100175.06
2018-12-18T13:02:02.996Z,100173.61
2018-12-18T13:04:32.447Z,100178.59
2018-12-18T13:07:10.746Z,100173.56
2018-12-18T13:09:45.191Z,100177.69
2018-12-18T13:12:17.147Z,100110.25
2018-12-18T13:14:47.502Z,100170.51
2018-12-18T13:17:22.153Z,100161.11
2018-12-18T13:19:53.153Z,100161.28
2018-12-18T13:22:23.203Z,100163.27
2018-12-18T13:24:54.970Z,100156.44
2018-12-18T13:27:32.175Z,100157.06
2018-12-18T13:30:03.994Z,100152.82
2018-12-18T13:32:39.313Z,100157.81
2018-12-18T13:35:13.272Z,100150.56
2018-12-18T13:37:44.640Z,100148.39
2018-12-18T13:40:14.853Z,100150.88
2018-12-18T13:42:44.946Z,100143.78
2018-12-18T13:45:15.696Z,100144.16
2018-12-18T13:47:48.199Z,100145.37
2018-12-18T13:50:18.570Z,100140.89
2018-12-18T13:52:52.982Z,100145.23
2018-12-18T13:55:23.437Z,100142.53
2018-12-18T13:57:55.127Z,100145.02
2018-12-18T14:00:24.913Z,100150.39
2018-12-18T14:02:59.806Z,100147.31
2018-12-18T14:05:30.133Z,100138.56
2018-12-18T14:07:59.747Z,100136.68
2018-12-18T14:10:30.423Z,100124.59
2018-12-18T14:13:01.157Z,100134.28
2018-12-18T14:15:30.793Z,100141.04
2018-12-18T14:18:00.825Z,100136.16
2018-12-18T14:20:32.946Z,100131.16
2018-12-18T14:25:09.452Z,100136.01
2018-12-18T14:27:40.073Z,100134.65
2018-12-18T14:30:11.352Z,100136.00
2018-12-18T14:32:41.332Z,100131.16
2018-12-18T14:35:12.271Z,100126.93
2018-12-18T14:37:43.559Z,100126.66
2018-12-18T14:40:14.143Z,100120.02
2018-12-18T14:42:43.741Z,100127.25
2018-12-18T14:45:15.911Z,100118.00
2018-12-18T14:47:47.641Z,100125.19
2018-12-18T14:50:18.238Z,100126.38
2018-12-18T14:52:50.753Z,100123.84
2018-12-18T14:55:21.045Z,100121.44
2018-12-18T14:57:54.331Z,100117.91
2018-12-18T15:00:25.117Z,100118.77
2018-12-18T15:02:57.725Z,100122.91
2018-12-18T15:05:28.794Z,100023.81
2018-12-18T15:07:58.656Z,100114.51
2018-12-18T15:10:29.958Z,100115.98
2018-12-18T15:13:00.326Z,100115.88
2018-12-18T15:15:30.715Z,100023.73
2018-12-18T15:18:00.704Z,100118.84
2018-12-18T15:20:32.519Z,100114.15
2018-12-18T15:23:05.962Z,100118.27
2018-12-18T15:25:37.385Z,100120.88
2018-12-18T15:28:11.512Z,100127.09
2018-12-18T15:30:45.208Z,100118.14
2018-12-18T15:33:17.532Z,100125.78
2018-12-18T15:35:50.173Z,100130.38
2018-12-18T15:38:24.467Z,100123.56
2018-12-18T15:40:57.986Z,100121.92
2018-12-18T15:43:47.867Z,100029.19
2018-12-18T15:46:24.418Z,100127.66
2018-12-18T15:48:59.010Z,100112.06
2018-12-18T15:51:32.190Z,100117.92
2018-12-18T15:54:09.768Z,100126.53
2018-12-18T15:56:42.753Z,100121.69
2018-12-18T15:59:14.740Z,100129.51
2018-12-18T16:01:47.440Z,100131.47
2018-12-18T16:04:18.921Z,100127.59
2018-12-18T16:06:50.532Z,100129.03
2018-12-18T16:09:23.801Z,100125.59
2018-12-18T16:11:55.109Z,100128.70
2018-12-18T16:14:26.832Z,100013.52
2018-12-18T16:17:02.826Z,99929.41
2018-12-18T16:19:35.652Z,100127.89
2018-12-18T16:22:13.395Z,100132.46
2018-12-18T16:24:46.140Z,100021.97
2018-12-18T16:27:17.528Z,100123.34
2018-12-18T16:29:49.428Z,100121.41
2018-12-18T16:32:20.889Z,100118.15
2018-12-18T16:34:52.745Z,100110.34
2018-12-18T16:37:25.001Z,100107.75
2018-12-18T16:39:55.118Z,100097.67
2018-12-18T16:42:27.217Z,100093.60
2018-12-18T16:44:57.285Z,100091.81
2018-12-18T16:47:28.176Z,100097.34
2018-12-18T16:49:58.146Z,100098.16
2018-12-18T16:52:28.254Z,100095.72
2018-12-18T16:54:59.182Z,100097.66
2018-12-18T16:57:30.170Z,100098.97
2018-12-18T17:00:01.778Z,100001.52
2018-12-18T17:02:32.558Z,100084.17
2018-12-18T17:05:02.039Z,100082.40
2018-12-18T17:07:32.555Z,100070.53
2018-12-18T17:10:02.616Z,100076.22
2018-12-18T17:12:32.472Z,100090.52
2018-12-18T17:15:04.674Z,100076.06
2018-12-18T17:17:34.862Z,100071.52
2018-12-18T17:20:06.003Z,100067.13
2018-12-18T17:22:35.736Z,100066.80
2018-12-18T17:25:06.665Z,100061.91
2018-12-18T17:27:36.152Z,100059.66
2018-12-18T17:30:10.251Z,100057.36
2018-12-18T17:32:42.524Z,100054.13
2018-12-18T17:35:12.363Z,100051.51
2018-12-18T17:37:41.893Z,100052.15
2018-12-18T17:40:12.633Z,100039.02
2018-12-18T17:42:42.608Z,100044.70
2018-12-18T17:45:16.763Z,100035.42
2018-12-18T17:47:47.979Z,100032.66
2018-12-18T17:50:24.856Z,100031.84
2018-12-18T17:52:57.135Z,100032.33
2018-12-18T17:55:27.186Z,100022.42
2018-12-18T17:57:59.884Z,100029.22
2018-12-18T18:00:32.083Z,100026.29
2018-12-18T18:03:06.045Z,100023.03
2018-12-18T18:05:37.483Z,100029.85
2018-12-18T18:08:12.282Z,100017.50
2018-12-18T18:10:42.369Z,100014.43
2018-12-18T18:13:11.794Z,100009.53
2018-12-18T18:15:41.892Z,99906.20
2018-12-18T18:18:11.548Z,100017.95
2018-12-18T18:20:42.774Z,100024.63
2018-12-18T18:23:16.722Z,100024.77
2018-12-18T18:25:47.391Z,100018.77
2018-12-18T18:28:16.966Z,99925.02
2018-12-18T18:30:47.802Z,100017.91
2018-12-18T18:33:17.646Z,100016.13
2018-12-18T18:35:47.422Z,100014.35
2018-12-18T18:38:17.477Z,100023.43
2018-12-18T18:40:47.260Z,100023.09
2018-12-18T18:43:17.935Z,100019.20
2018-12-18T18:45:48.655Z,100015.47
2018-12-18T18:48:18.591Z,100009.45
2018-12-18T18:50:48.292Z,100006.71
2018-12-18T18:53:19.136Z,100007.67
2018-12-18T18:55:49.206Z,99995.85
2018-12-18T18:58:19.003Z,99997.78
2018-12-18T19:01:01.147Z,100009.13
2018-12-18T19:03:32.575Z,100004.59
2018-12-18T19:06:04.207Z,99996.48
2018-12-18T19:08:36.495Z,99900.42
2018-12-18T19:11:06.803Z,99994.18
2018-12-18T19:13:37.383Z,99993.06
2018-12-18T19:16:07.849Z,99985.91
2018-12-18T19:18:41.932Z,99986.06
2018-12-18T19:21:12.603Z,99983.80
2018-12-18T19:23:45.830Z,99980.53
2018-12-18T19:26:15.914Z,99986.20
2018-12-18T19:28:50.162Z,99982.94
2018-12-18T19:31:29.827Z,99981.64
2018-12-18T19:34:01.621Z,99977.59
2018-12-18T19:36:32.713Z,99981.45
2018-12-18T19:39:12.778Z,99967.33
2018-12-18T19:41:43.683Z,99970.25
2018-12-18T19:44:19.434Z,99975.10
2018-12-18T19:46:52.647Z,99958.39
2018-12-18T19:49:23.645Z,99959.87
2018-12-18T19:51:53.567Z,99956.76
2018-12-18T19:54:24.638Z,99947.53
2018-12-18T19:56:54.426Z,99945.71
2018-12-18T19:59:24.477Z,99946.03
2018-12-18T20:01:55.135Z,99941.48
2018-12-18T20:04:25.314Z,99941.80
2018-12-18T20:06:54.908Z,99935.95
2018-12-18T20:09:24.377Z,99935.28
2018-12-18T20:11:54.189Z,99929.12
2018-12-18T20:14:24.171Z,99926.83
2018-12-18T20:16:57.078Z,99921.31
2018-12-18T20:19:26.628Z,99919.38
2018-12-18T20:21:56.288Z,99920.97
2018-12-18T20:24:26.163Z,99916.60
2018-12-18T20:26:55.758Z,99913.05
2018-12-18T20:29:25.446Z,99906.57
2018-12-18T20:31:54.886Z,99908.83
2018-12-18T20:34:25.063Z,99908.20
2018-12-18T20:36:54.944Z,99905.27
2018-12-18T20:39:24.671Z,99901.53
2018-12-18T20:41:56.588Z,99902.53
2018-12-18T20:44:26.242Z,99900.58
2018-12-18T20:46:55.723Z,99882.44
2018-12-18T20:49:25.139Z,99884.55
2018-12-18T20:51:54.698Z,99887.81
2018-12-18T20:54:24.470Z,99878.74
2018-12-18T20:56:54.700Z,99864.97
2018-12-18T20:59:24.290Z,99862.05
2018-12-18T21:01:54.056Z,99864.81
2018-12-18T21:04:23.699Z,99858.81
2018-12-18T21:06:53.483Z,99854.45
2018-12-18T21:09:23.192Z,99853.45
2018-12-18T21:11:53.419Z,99849.41
2018-12-18T21:14:22.875Z,99845.86
2018-12-18T21:16:52.388Z,99844.87
2018-12-18T21:19:22.717Z,99846.16
2018-12-18T21:21:52.557Z,99839.20
2018-12-18T21:24:23.807Z,99839.05
2018-12-18T21:26:54.225Z,99839.72
2018-12-18T21:29:24.743Z,99838.42
2018-12-18T21:31:54.525Z,99832.24
2018-12-18T21:34:24.096Z,99819.28
2018-12-18T21:36:54.917Z,99816.88
2018-12-18T21:39:24.834Z,99812.32
2018-12-18T21:41:55.193Z,99799.52
2018-12-18T21:44:25.184Z,99800.96
2018-12-18T21:46:56.249Z,99796.26
2018-12-18T21:49:26.225Z,99791.73
2018-12-18T21:51:56.289Z,99796.25
2018-12-18T21:54:26.618Z,99800.92
2018-12-18T21:56:56.545Z,99799.62
2018-12-18T21:59:26.406Z,99790.55
2018-12-18T22:01:56.174Z,99783.30
2018-12-18T22:04:26.737Z,99780.03
2018-12-18T22:06:57.540Z,99778.56
2018-12-18T22:09:28.017Z,99770.97
2018-12-18T22:11:57.844Z,99765.61
2018-12-18T22:14:31.391Z,99760.24
2018-12-18T22:17:01.742Z,99757.02
2018-12-18T22:19:32.267Z,99767.86
2018-12-18T22:22:03.880Z,99761.05
2018-12-18T22:24:34.140Z,99765.89
2018-12-18T22:27:04.167Z,99763.97
2018-12-18T22:29:33.819Z,99762.82
2018-12-18T22:32:03.756Z,99761.34
2018-12-18T22:34:34.136Z,99758.12
2018-12-18T22:37:03.847Z,99756.78
2018-12-18T22:39:33.922Z,99750.45
2018-12-18T22:42:03.374Z,99746.91
2018-12-18T22:44:33.403Z,99739.61
2018-12-18T22:47:02.850Z,99730.21
2018-12-18T22:49:32.760Z,99720.81
2018-12-18T22:52:03.201Z,99714.83
2018-12-18T22:54:33.366Z,99714.20
2018-12-18T22:57:03.504Z,99715.16
2018-12-18T22:59:33.485Z,99709.80
2018-12-18T23:02:10.765Z,99710.59
2018-12-18T23:04:40.699Z,99594.17
2018-12-18T23:07:11.911Z,99696.65
2018-12-18T23:09:41.413Z,99693.73
2018-12-18T23:12:11.439Z,99694.53
2018-12-18T23:14:41.489Z,99689.17
2018-12-18T23:17:11.334Z,99699.19
2018-12-18T23:19:40.959Z,99694.82
2018-12-18T23:22:10.860Z,99699.18
2018-12-18T23:24:40.579Z,99687.87
2018-12-18T23:27:11.108Z,99686.58
2018-12-18T23:29:41.229Z,99679.30
2018-12-18T23:32:13.098Z,99680.73
2018-12-18T23:34:43.172Z,99681.36
2018-12-18T23:37:13.016Z,99671.19
2018-12-18T23:39:43.023Z,99679.44
2018-12-18T23:42:13.681Z,99671.34
2018-12-18T23:44:43.584Z,99669.71
2018-12-18T23:47:12.999Z,99672.78
2018-12-18T23:49:42.687Z,99667.45
2018-12-18T23:52:12.656Z,99661.61
2018-12-18T23:54:42.412Z,99665.48
2018-12-18T23:57:12.546Z,99668.70
2018-12-18T23:59:42.448Z,99665.63
